Time;durP1;ratioP1;P1;durP2;ratioP2;P2;SDS_P1;SDS_P2;PMS_P1;PMS_P2;Temp;Humidity;BMP_temperature;BMP_pressure;BME280_temperature;BME280_humidity;BME280_pressure;Samples;Min_cycle;Max_cycle;Signal;HPM_P1;HPM_P2
2021/04/30 00:00:19;;;;;;;11.32;4.68;;;;;;;13.64;44.78;99585.97;3455229;28;20140;-70
2021/04/30 00:01:59;;;;;;;8.80;5.17;;;;;;;13.65;44.60;99584.91;3454955;28;20503;-71
2021/04/30 00:03:40;;;;;;;11.02;5.10;;;;;;;13.61;44.43;99573.00;3454856;28;20292;-70
2021/04/30 00:05:21;;;;;;;10.77;5.47;;;;;;;13.64;44.41;99583.28;3454880;28;20064;-70
2021/04/30 00:07:02;;;;;;;8.85;4.82;;;;;;;13.63;44.48;99578.94;3461630;28;20041;-70
2021/04/30 00:08:42;;;;;;;7.15;4.20;;;;;;;13.59;44.41;99578.56;3456527;28;20041;-71
2021/04/30 00:10:25;;;;;;;6.55;4.65;;;;;;;13.23;44.47;99531.81;3448653;28;20445;-70
2021/04/30 00:12:06;;;;;;;8.18;4.72;;;;;;;13.55;44.41;99581.91;3456720;28;20076;-70
2021/04/30 00:13:47;;;;;;;10.55;5.30;;;;;;;13.49;44.50;99573.69;3466245;28;20493;-69
2021/04/30 00:15:30;;;;;;;11.20;4.53;;;;;;;13.44;44.57;99578.88;3468077;28;20469;-67
2021/04/30 00:17:11;;;;;;;8.02;4.32;;;;;;;13.45;44.65;99577.00;3454899;28;20124;-70
2021/04/30 00:18:52;;;;;;;4.95;3.80;;;;;;;13.45;44.59;99577.00;3463506;28;20056;-69
2021/04/30 00:20:36;;;;;;;8.63;4.63;;;;;;;13.46;44.76;99573.31;3468815;28;20115;-69
2021/04/30 00:22:17;;;;;;;7.25;3.78;;;;;;;13.56;45.17;99572.84;3468482;28;20045;-68
2021/04/30 00:23:59;;;;;;;7.07;4.32;;;;;;;13.63;44.77;99570.91;3467371;28;20128;-68
2021/04/30 00:25:40;;;;;;;7.38;4.22;;;;;;;13.61;44.40;99570.34;3455595;28;20464;-69
2021/04/30 00:27:27;;;;;;;6.20;4.72;;;;;;;13.46;44.41;99558.06;3455348;28;20042;-70
2021/04/30 00:29:07;;;;;;;6.63;4.10;;;;;;;13.38;44.67;99560.19;3455198;28;20041;-70
2021/04/30 00:30:49;;;;;;;6.75;4.18;;;;;;;13.34;44.73;99567.00;3454639;28;20484;-70
2021/04/30 00:32:30;;;;;;;9.90;4.43;;;;;;;13.34;44.88;99559.78;3454410;28;20034;-69
2021/04/30 00:34:16;;;;;;;11.20;5.90;;;;;;;13.36;44.95;99555.03;3453771;28;20125;-69
2021/04/30 00:35:57;;;;;;;6.97;4.38;;;;;;;13.39;44.70;99562.63;3454899;28;20108;-70
2021/04/30 00:37:38;;;;;;;6.53;4.53;;;;;;;13.40;44.62;99563.44;3454920;28;20046;-69
2021/04/30 00:39:19;;;;;;;6.40;4.28;;;;;;;13.36;44.86;99557.72;3455415;28;20038;-69
2021/04/30 00:40:59;;;;;;;5.38;3.90;;;;;;;13.39;44.95;99559.16;3455115;28;20042;-69
2021/04/30 00:42:40;;;;;;;11.77;5.10;;;;;;;13.41;44.79;99555.22;3453955;28;20080;-69
2021/04/30 00:44:21;;;;;;;9.00;4.60;;;;;;;13.43;44.50;99555.81;3454894;28;20046;-69
2021/04/30 00:46:03;;;;;;;6.38;4.05;;;;;;;13.36;44.42;99557.72;3454702;28;20045;-70
2021/04/30 00:47:44;;;;;;;6.45;4.80;;;;;;;13.36;44.65;99552.38;3454123;28;20089;-70
2021/04/30 00:49:24;;;;;;;8.25;4.13;;;;;;;13.35;44.60;99548.06;3444435;28;20137;-68
2021/04/30 00:51:05;;;;;;;8.10;4.57;;;;;;;13.41;44.45;99554.41;3443324;28;20049;-68
2021/04/30 00:52:46;;;;;;;7.10;4.40;;;;;;;13.40;44.55;99537.53;3455907;28;20045;-69
2021/04/30 00:54:27;;;;;;;6.25;4.18;;;;;;;13.49;44.46;99541.56;3454651;28;20052;-70
2021/04/30 00:56:08;;;;;;;7.53;4.68;;;;;;;13.53;44.43;99537.44;3455036;28;20037;-69
2021/04/30 00:57:54;;;;;;;5.97;4.03;;;;;;;13.64;44.17;99541.25;3454694;28;20045;-68
2021/04/30 00:59:35;;;;;;;19.77;4.85;;;;;;;13.65;44.23;99539.38;3455089;28;20128;-69
2021/04/30 01:01:16;;;;;;;7.88;4.13;;;;;;;13.59;43.80;99540.28;3455345;28;20046;-70
2021/04/30 01:02:56;;;;;;;9.10;5.05;;;;;;;13.47;44.06;99540.94;3454345;28;20033;-69
2021/04/30 01:04:37;;;;;;;8.38;4.50;;;;;;;13.35;44.29;99534.69;3454736;28;20048;-69
2021/04/30 01:06:18;;;;;;;6.75;4.60;;;;;;;13.27;44.34;99535.75;3454791;28;20142;-70
2021/04/30 01:07:59;;;;;;;11.05;3.85;;;;;;;13.18;44.34;99528.16;3455050;28;20076;-68
2021/04/30 01:09:40;;;;;;;5.13;3.85;;;;;;;13.10;44.21;99537.25;3454717;28;20042;-69
2021/04/30 01:11:20;;;;;;;6.72;4.10;;;;;;;13.06;44.13;99534.22;3454805;28;20037;-69
2021/04/30 01:13:02;;;;;;;6.78;4.07;;;;;;;13.09;44.35;99524.94;3454289;28;20038;-68
2021/04/30 01:14:44;;;;;;;4.20;3.80;;;;;;;13.14;44.57;99519.75;3454333;28;20038;-68
2021/04/30 01:16:25;;;;;;;6.15;4.20;;;;;;;13.18;44.37;99518.28;3458213;28;20402;-69
2021/04/30 01:18:05;;;;;;;5.25;3.40;;;;;;;13.19;44.44;99521.75;3466436;28;20233;-69
2021/04/30 01:19:46;;;;;;;5.85;4.25;;;;;;;13.24;44.37;99519.25;3457413;28;20065;-70
2021/04/30 01:21:27;;;;;;;4.00;3.60;;;;;;;13.23;44.26;99510.41;3458049;28;20148;-72
2021/04/30 01:23:08;;;;;;;9.80;4.32;;;;;;;13.19;44.10;99508.38;3457380;28;20048;-70
2021/04/30 01:24:48;;;;;;;5.47;4.57;;;;;;;13.13;43.97;99518.09;3457891;28;20624;-71
2021/04/30 01:26:29;;;;;;;6.75;3.85;;;;;;;13.07;44.18;99516.28;3458604;28;20041;-72
2021/04/30 01:28:10;;;;;;;6.82;4.30;;;;;;;13.01;44.19;99509.09;3464683;28;20033;-71
2021/04/30 01:29:50;;;;;;;7.07;4.40;;;;;;;12.95;44.21;99513.47;3471324;28;20041;-70
2021/04/30 01:31:34;;;;;;;6.38;4.28;;;;;;;12.88;44.45;99518.88;3472308;28;20073;-70
2021/04/30 01:33:17;;;;;;;7.15;4.03;;;;;;;12.80;44.39;99510.25;3473786;28;20041;-69
2021/04/30 01:34:58;;;;;;;10.75;3.47;;;;;;;12.77;44.47;99510.69;3473185;28;20029;-69
2021/04/30 01:36:40;;;;;;;15.65;5.05;;;;;;;12.69;44.31;99510.94;3471374;28;20508;-72
2021/04/30 01:38:21;;;;;;;;;;;;;;;12.84;44.29;99511.47;3445562;28;20520;-72
2021/04/30 01:40:10;;;;;;;5.00;4.38;;;;;;;12.77;44.33;99511.50;3445718;28;19921;-71
2021/04/30 01:41:51;;;;;;;7.97;4.35;;;;;;;12.75;44.36;99502.88;3445443;28;20046;-70
2021/04/30 01:43:33;;;;;;;6.97;4.57;;;;;;;12.75;44.44;99502.03;3445912;28;20516;-71
2021/04/30 01:45:14;;;;;;;8.43;4.10;;;;;;;12.75;44.39;99497.53;3467896;28;20041;-72
2021/04/30 01:46:58;;;;;;;6.85;4.20;;;;;;;12.77;44.52;99499.97;3471210;28;20187;-70
2021/04/30 01:48:39;;;;;;;6.00;3.97;;;;;;;12.74;44.47;99500.41;3471546;28;20121;-71
2021/04/30 01:50:19;;;;;;;4.53;3.90;;;;;;;12.69;44.65;99486.88;3462252;28;20034;-71
2021/04/30 01:52:00;;;;;;;5.90;4.03;;;;;;;12.70;44.83;99489.34;3457603;28;20136;-70
2021/04/30 01:53:42;;;;;;;7.10;4.00;;;;;;;12.75;44.69;99483.31;3457319;28;20066;-69
2021/04/30 01:55:27;;;;;;;11.15;4.95;;;;;;;12.77;44.65;99484.75;3457250;28;20417;-68
2021/04/30 01:57:08;;;;;;;6.68;4.05;;;;;;;12.84;44.63;99482.88;3456359;28;20045;-69
2021/04/30 01:58:49;;;;;;;7.05;4.68;;;;;;;12.84;44.54;99479.38;3457284;28;20125;-69
2021/04/30 02:00:30;;;;;;;7.03;4.13;;;;;;;12.81;44.54;99485.16;3458448;28;20077;-72
2021/04/30 02:02:11;;;;;;;6.85;4.15;;;;;;;12.82;44.68;99473.41;3457226;28;20104;-70
2021/04/30 02:03:51;;;;;;;5.43;4.35;;;;;;;12.77;44.63;99468.72;3457143;28;20120;-69
2021/04/30 02:05:33;;;;;;;6.68;4.63;;;;;;;12.79;44.61;99473.84;3455968;28;20140;-70
2021/04/30 02:07:13;;;;;;;6.45;3.88;;;;;;;12.79;44.59;99472.00;3456969;28;20038;-70
2021/04/30 02:08:54;;;;;;;6.82;4.78;;;;;;;12.75;44.48;99472.63;3456735;28;20061;-70
2021/04/30 02:10:35;;;;;;;7.53;4.83;;;;;;;12.76;44.59;99469.75;3457034;28;20038;-70
2021/04/30 02:12:18;;;;;;;8.65;4.65;;;;;;;12.71;44.58;99468.75;3457145;28;20042;-71
2021/04/30 02:14:00;;;;;;;4.93;4.07;;;;;;;12.68;44.79;99466.53;3458700;28;20046;-71
2021/04/30 02:15:43;;;;;;;8.50;4.07;;;;;;;12.64;44.98;99464.25;3458053;28;20460;-70
2021/04/30 02:17:36;;;;;;;7.38;4.35;;;;;;;12.62;44.91;99462.81;3456126;28;20659;-69
2021/04/30 02:19:17;;;;;;;7.78;4.63;;;;;;;12.62;45.01;99457.47;3456923;28;20053;-70
2021/04/30 02:20:58;;;;;;;7.97;4.28;;;;;;;12.60;45.13;99456.88;3458049;28;20037;-69
2021/04/30 02:22:39;;;;;;;8.75;4.40;;;;;;;12.60;44.96;99457.72;3456985;28;20042;-69
2021/04/30 02:24:20;;;;;;;64.20;41.28;;;;;;;12.60;45.20;99452.34;3456947;28;20590;-68
2021/04/30 02:26:00;;;;;;;32.47;19.27;;;;;;;12.63;45.12;99441.22;3456480;28;20049;-70
2021/04/30 02:27:42;;;;;;;16.00;11.43;;;;;;;12.65;45.13;99444.53;3457105;28;20045;-68
2021/04/30 02:29:22;;;;;;;12.48;7.05;;;;;;;12.65;44.95;99444.53;3457045;28;20421;-70
2021/04/30 02:31:03;;;;;;;12.60;5.53;;;;;;;12.69;45.07;99444.09;3457404;28;20045;-72
2021/04/30 02:32:45;;;;;;;7.88;5.07;;;;;;;12.72;45.11;99440.97;3457092;28;20049;-70
2021/04/30 02:34:25;;;;;;;11.32;6.88;;;;;;;12.79;45.25;99441.75;3456988;28;20073;-71
2021/04/30 02:36:06;;;;;;;17.13;5.45;;;;;;;12.83;45.06;99437.59;3456821;28;20037;-69
2021/04/30 02:37:47;;;;;;;6.28;4.47;;;;;;;12.81;44.88;99431.69;3456983;28;20048;-70
2021/04/30 02:39:28;;;;;;;6.15;4.68;;;;;;;12.77;44.75;99428.59;3456824;28;20106;-71
2021/04/30 02:41:08;;;;;;;5.90;4.57;;;;;;;12.71;45.02;99432.13;3456892;28;20064;-72
2021/04/30 02:42:49;;;;;;;7.72;3.97;;;;;;;12.68;44.95;99435.25;3455560;28;20505;-73
2021/04/30 02:44:30;;;;;;;7.53;4.57;;;;;;;12.64;44.94;99421.47;3459597;28;20045;-72
2021/04/30 02:46:11;;;;;;;5.07;4.47;;;;;;;12.68;44.96;99419.19;3470529;28;20460;-73
2021/04/30 02:47:53;;;;;;;6.65;4.57;;;;;;;12.68;45.13;99418.41;3470128;28;20452;-69
2021/04/30 02:50:07;;;;;;;5.68;3.92;;;;;;;12.71;45.06;99417.97;3469278;28;20048;-70
2021/04/30 02:51:42;;;;;;;6.13;4.18;;;;;;;12.73;44.83;99419.38;3442828;28;20073;-69
2021/04/30 02:53:23;;;;;;;6.22;4.13;;;;;;;12.71;44.96;99418.78;3467522;28;20048;-71
2021/04/30 02:55:07;;;;;;;9.50;6.25;;;;;;;12.72;44.97;99417.72;3462920;28;20436;-71
2021/04/30 02:56:47;;;;;;;9.13;4.10;;;;;;;12.74;44.85;99409.50;3458569;28;20504;-71
2021/04/30 02:58:29;;;;;;;6.13;4.28;;;;;;;12.77;44.83;99409.06;3455665;28;20049;-70
2021/04/30 03:00:12;;;;;;;4.90;3.90;;;;;;;12.78;44.72;99405.38;3456228;28;20416;-70
2021/04/30 03:01:53;;;;;;;4.55;4.00;;;;;;;12.79;44.92;99413.16;3456293;28;20038;-71
2021/04/30 03:03:33;;;;;;;4.82;3.60;;;;;;;12.81;45.01;99407.59;3456502;28;20068;-71
2021/04/30 03:05:15;;;;;;;8.23;4.85;;;;;;;12.84;44.52;99404.50;3463059;28;20052;-71
2021/04/30 03:06:55;;;;;;;8.67;4.27;;;;;;;12.86;44.78;99399.75;3470197;28;20045;-70
2021/04/30 03:08:36;;;;;;;5.20;4.03;;;;;;;12.84;44.80;99399.97;3469949;28;20433;-69
2021/04/30 03:10:18;;;;;;;5.18;4.07;;;;;;;12.87;44.53;99401.38;3469016;28;20037;-71
2021/04/30 03:11:59;;;;;;;6.88;4.47;;;;;;;12.87;44.70;99393.34;3466704;28;20073;-71
2021/04/30 03:13:40;;;;;;;12.52;4.53;;;;;;;12.93;44.85;99392.47;3456379;28;20539;-68
2021/04/30 03:15:20;;;;;;;10.73;3.97;;;;;;;12.93;44.86;99392.47;3458687;28;20455;-68
2021/04/30 03:17:01;;;;;;;7.72;4.18;;;;;;;12.94;44.58;99391.47;3455167;28;20045;-70
2021/04/30 03:18:42;;;;;;;7.60;3.90;;;;;;;12.91;44.79;99383.88;3452651;28;20044;-71
2021/04/30 03:20:23;;;;;;;11.25;3.90;;;;;;;12.95;44.54;99390.41;3456067;28;20052;-70
2021/04/30 03:22:04;;;;;;;5.80;3.83;;;;;;;12.97;44.89;99383.00;3456175;28;20038;-70
2021/04/30 03:23:44;;;;;;;9.23;4.47;;;;;;;13.02;44.67;99380.50;3455283;28;20041;-70
2021/04/30 03:25:25;;;;;;;8.40;3.42;;;;;;;13.15;45.67;99379.56;3456484;28;20091;-69
2021/04/30 03:27:06;;;;;;;5.25;3.40;;;;;;;13.53;46.57;99373.28;3455276;28;20527;-68
2021/04/30 03:28:47;;;;;;;5.50;3.25;;;;;;;13.95;46.34;99373.44;3455791;28;20045;-67
2021/04/30 03:30:28;;;;;;;7.97;3.42;;;;;;;14.34;45.57;99376.66;3455267;28;20037;-68
2021/04/30 03:32:08;;;;;;;5.43;2.83;;;;;;;14.68;45.74;99367.13;3456324;28;20099;-67
2021/04/30 03:33:50;;;;;;;;;;;;;;;14.94;45.21;99370.44;3460029;28;20061;-67
2021/04/30 03:35:31;;;;;;;6.72;3.53;;;;;;;15.09;44.73;99367.31;3455989;28;19921;-67
2021/04/30 03:37:12;;;;;;;7.60;2.72;;;;;;;15.18;44.81;99366.75;3466625;28;20048;-67
2021/04/30 03:38:52;;;;;;;6.65;3.95;;;;;;;15.25;43.97;99362.06;3469630;28;20041;-68
2021/04/30 03:40:33;;;;;;;7.63;3.25;;;;;;;15.34;44.30;99364.44;3469787;28;20045;-67
2021/04/30 03:42:14;;;;;;;4.68;3.60;;;;;;;15.42;43.83;99356.00;3469610;28;20103;-66
2021/04/30 03:43:55;;;;;;;6.78;3.20;;;;;;;15.61;44.23;99360.19;3468404;28;20045;-69
2021/04/30 03:45:35;;;;;;;12.85;3.70;;;;;;;15.76;43.97;99351.66;3469065;28;20045;-69
2021/04/30 03:47:16;;;;;;;7.45;5.82;;;;;;;15.81;43.08;99349.09;3467769;28;20504;-66
2021/04/30 03:49:14;;;;;;;12.88;4.70;;;;;;;15.88;43.04;99355.16;3469538;28;20045;-68
2021/04/30 03:50:56;;;;;;;9.15;3.85;;;;;;;15.96;42.57;99348.59;3469518;28;20547;-66
2021/04/30 03:52:37;;;;;;;11.13;5.30;;;;;;;16.06;42.92;99343.41;3469649;28;20049;-67
2021/04/30 03:54:17;;;;;;;10.38;4.88;;;;;;;16.19;42.84;99344.22;3469426;28;20133;-67
2021/04/30 03:55:58;;;;;;;11.70;5.28;;;;;;;16.27;42.89;99341.13;3460346;28;20038;-67
2021/04/30 03:57:39;;;;;;;6.75;4.40;;;;;;;16.39;43.06;99339.19;3459100;28;20041;-67
2021/04/30 03:59:19;;;;;;;13.15;4.72;;;;;;;16.46;42.94;99342.53;3455817;28;20068;-67
2021/04/30 04:01:00;;;;;;;9.25;5.22;;;;;;;16.55;43.07;99332.22;3455939;28;20077;-67
2021/04/30 04:02:41;;;;;;;6.07;3.72;;;;;;;16.52;42.39;99335.38;3455431;28;20413;-68
2021/04/30 04:04:22;;;;;;;8.90;4.00;;;;;;;16.50;42.39;99324.06;3454793;28;20049;-68
2021/04/30 04:06:02;;;;;;;6.35;3.78;;;;;;;16.60;42.89;99326.09;3455808;28;20050;-68
2021/04/30 04:07:43;;;;;;;9.00;4.00;;;;;;;16.75;42.76;99320.97;3461351;28;20514;-69
2021/04/30 04:09:24;;;;;;;6.97;4.03;;;;;;;16.90;41.86;99331.22;3468375;28;20045;-68
2021/04/30 04:11:04;;;;;;;7.07;3.60;;;;;;;17.03;41.36;99322.00;3469113;28;20040;-67
2021/04/30 04:12:45;;;;;;;6.95;3.00;;;;;;;17.20;41.44;99322.78;3468308;28;20038;-67
2021/04/30 04:14:26;;;;;;;6.20;3.08;;;;;;;17.38;41.36;99311.75;3459838;28;20033;-67
2021/04/30 04:16:06;;;;;;;9.93;3.40;;;;;;;17.55;41.22;99318.97;3454820;28;20058;-67
2021/04/30 04:17:47;;;;;;;10.85;3.30;;;;;;;17.60;40.47;99319.03;3463411;28;20041;-67
2021/04/30 04:19:28;;;;;;;4.53;3.08;;;;;;;17.54;40.21;99320.84;3469112;28;20042;-67
2021/04/30 04:21:09;;;;;;;7.35;3.50;;;;;;;17.44;40.34;99313.44;3469139;28;20070;-68
2021/04/30 04:22:49;;;;;;;5.43;2.70;;;;;;;17.37;40.96;99312.81;3469221;28;20037;-67
2021/04/30 04:24:30;;;;;;;5.65;2.53;;;;;;;17.43;41.00;99317.19;3469175;28;20041;-67
2021/04/30 04:26:11;;;;;;;12.15;3.38;;;;;;;17.53;41.04;99310.31;3469362;28;20055;-67
2021/04/30 04:27:51;;;;;;;7.97;3.22;;;;;;;17.64;41.30;99304.00;3467084;28;20041;-67
2021/04/30 04:29:32;;;;;;;4.40;2.75;;;;;;;17.86;41.33;99307.53;3466425;28;20061;-67
2021/04/30 04:31:13;;;;;;;4.22;3.00;;;;;;;18.04;40.71;99300.16;3464537;28;20037;-67
2021/04/30 04:32:54;;;;;;;6.13;2.78;;;;;;;18.21;40.38;99298.19;3455403;28;20038;-68
2021/04/30 04:34:34;;;;;;;9.25;2.63;;;;;;;18.36;40.03;99302.13;3455694;28;20080;-66
2021/04/30 04:36:15;;;;;;;4.82;3.08;;;;;;;18.51;39.83;99300.38;3455349;28;20497;-67
2021/04/30 04:37:56;;;;;;;7.10;2.38;;;;;;;18.60;39.35;99298.03;3454455;28;20072;-68
2021/04/30 04:39:36;;;;;;;6.18;3.63;;;;;;;18.60;38.75;99295.31;3455312;28;20129;-68
2021/04/30 04:41:18;;;;;;;7.35;3.47;;;;;;;18.61;38.54;99290.72;3455479;28;20484;-67
2021/04/30 04:42:59;;;;;;;;;;;;;;;18.64;38.91;99299.16;3468897;28;20115;-67
2021/04/30 04:44:40;;;;;;;5.68;3.78;;;;;;;18.51;37.78;99288.78;3468725;28;19921;-70
2021/04/30 04:46:21;;;;;;;6.43;3.83;;;;;;;18.38;37.59;99283.78;3468982;28;20075;-69
2021/04/30 04:48:01;;;;;;;6.82;3.85;;;;;;;18.14;37.41;99288.69;3469079;28;20053;-70
2021/04/30 04:49:43;;;;;;;6.65;4.15;;;;;;;17.88;37.42;99281.13;3471546;28;20504;-70
2021/04/30 04:51:24;;;;;;;6.60;3.05;;;;;;;17.74;37.60;99281.75;3471848;28;20049;-70
2021/04/30 04:53:04;;;;;;;7.93;3.63;;;;;;;17.58;37.75;99275.34;3465421;28;20420;-71
2021/04/30 04:54:45;;;;;;;4.93;3.03;;;;;;;17.42;37.93;99275.16;3471534;28;20042;-69
2021/04/30 04:56:27;;;;;;;9.98;3.90;;;;;;;17.28;37.96;99271.19;3470041;28;20120;-70
2021/04/30 04:58:08;;;;;;;5.10;3.30;;;;;;;17.16;37.96;99275.88;3471487;28;20049;-70
2021/04/30 04:59:49;;;;;;;6.50;3.90;;;;;;;17.07;38.38;99271.97;3471783;28;20059;-72
2021/04/30 05:01:29;;;;;;;12.30;3.88;;;;;;;16.96;38.08;99265.59;3471499;28;20127;-70
2021/04/30 05:03:10;;;;;;;8.13;3.90;;;;;;;16.90;38.41;99270.09;3463437;28;20070;-70
2021/04/30 05:04:51;;;;;;;6.78;3.92;;;;;;;16.90;38.48;99261.22;3458741;28;20080;-69
2021/04/30 05:06:32;;;;;;;7.53;3.60;;;;;;;16.84;38.12;99272.97;3457958;28;20045;-69
2021/04/30 05:08:12;;;;;;;4.07;3.08;;;;;;;16.68;38.24;99261.13;3457857;28;20040;-69
2021/04/30 05:09:53;;;;;;;9.63;3.42;;;;;;;16.58;38.34;99259.09;3459051;28;20069;-70
2021/04/30 05:11:34;;;;;;;3.97;3.05;;;;;;;16.60;38.58;99254.28;3457689;28;20042;-69
2021/04/30 05:13:15;;;;;;;11.13;3.60;;;;;;;16.73;38.64;99255.84;3463743;28;20041;-70
2021/04/30 05:14:55;;;;;;;4.57;3.38;;;;;;;16.82;38.65;99254.38;3471300;28;20056;-69
2021/04/30 05:16:36;;;;;;;4.35;2.92;;;;;;;16.90;38.48;99247.75;3470359;28;20041;-69
2021/04/30 05:18:17;;;;;;;7.20;3.10;;;;;;;16.98;38.24;99237.38;3470894;28;20056;-70
2021/04/30 05:19:58;;;;;;;8.05;3.47;;;;;;;17.05;38.10;99249.88;3467911;28;20030;-69
2021/04/30 05:21:44;;;;;;;6.30;3.50;;;;;;;17.09;38.17;99240.22;3460989;28;20432;-71
2021/04/30 05:23:25;;;;;;;5.25;3.58;;;;;;;17.14;37.90;99242.97;3457164;28;20040;-71
2021/04/30 05:25:08;;;;;;;9.90;2.75;;;;;;;17.19;38.54;99243.03;3456476;28;20065;-70
2021/04/30 05:26:49;;;;;;;5.03;2.95;;;;;;;17.20;38.07;99231.22;3457432;28;20041;-69
2021/04/30 05:28:31;;;;;;;8.40;3.30;;;;;;;17.20;37.90;99239.31;3457505;28;20046;-69
2021/04/30 05:30:12;;;;;;;7.00;3.83;;;;;;;17.12;37.83;99234.34;3457315;28;20044;-69
2021/04/30 05:31:53;;;;;;;10.13;4.00;;;;;;;17.04;37.87;99242.84;3457342;28;20044;-71
2021/04/30 05:33:34;;;;;;;4.70;3.22;;;;;;;16.92;37.93;99241.06;3458347;28;20033;-70
2021/04/30 05:35:15;;;;;;;5.35;3.47;;;;;;;16.83;38.07;99239.03;3456308;28;20141;-71
2021/04/30 05:36:55;;;;;;;12.98;3.05;;;;;;;16.83;38.87;99230.97;3457107;28;20473;-68
2021/04/30 05:38:36;;;;;;;5.72;3.22;;;;;;;16.92;38.66;99233.00;3457396;28;20087;-68
2021/04/30 05:40:17;;;;;;;4.65;3.35;;;;;;;16.98;38.46;99234.69;3457750;28;20501;-69
2021/04/30 05:41:58;;;;;;;3.75;3.35;;;;;;;16.97;38.43;99230.38;3457139;28;20038;-71
2021/04/30 05:43:39;;;;;;;6.90;4.25;;;;;;;16.89;38.37;99228.09;3464237;28;20063;-72
2021/04/30 05:45:19;;;;;;;5.93;3.92;;;;;;;16.72;38.43;99227.28;3468259;28;20061;-69
2021/04/30 05:47:00;;;;;;;3.63;2.90;;;;;;;16.62;38.60;99221.75;3457156;28;20144;-70
2021/04/30 05:48:41;;;;;;;5.25;3.33;;;;;;;16.62;38.93;99225.25;3456888;28;20132;-69
2021/04/30 05:50:21;;;;;;;8.15;3.50;;;;;;;16.65;38.71;99218.56;3458060;28;20045;-70
2021/04/30 05:52:02;;;;;;;5.75;3.40;;;;;;;16.67;38.84;99221.81;3458876;28;20041;-69
2021/04/30 05:53:43;;;;;;;6.05;4.13;;;;;;;16.67;38.76;99221.81;3466481;28;20041;-68
2021/04/30 05:55:24;;;;;;;4.93;2.95;;;;;;;16.68;38.87;99218.09;3458586;28;20049;-68
2021/04/30 05:57:05;;;;;;;5.55;2.97;;;;;;;16.72;38.85;99219.19;3469707;28;20579;-69
2021/04/30 05:58:46;;;;;;;8.15;3.65;;;;;;;16.66;38.61;99212.13;3470485;28;20042;-69
2021/04/30 06:00:27;;;;;;;8.23;3.95;;;;;;;16.60;38.58;99210.41;3468412;28;20045;-70
2021/04/30 06:02:08;;;;;;;7.00;3.40;;;;;;;16.55;38.75;99203.91;3470819;28;20069;-70
2021/04/30 06:03:49;;;;;;;7.43;2.97;;;;;;;16.51;38.44;99216.19;3470634;28;20108;-68
2021/04/30 06:05:30;;;;;;;7.47;3.58;;;;;;;16.42;38.77;99208.78;3470738;28;20072;-68
2021/04/30 06:07:11;;;;;;;5.68;3.10;;;;;;;16.43;39.19;99200.47;3457432;28;20050;-70
2021/04/30 06:08:51;;;;;;;7.18;3.50;;;;;;;16.45;39.06;99198.34;3458035;28;20532;-69
2021/04/30 06:10:32;;;;;;;11.40;3.97;;;;;;;16.40;38.88;99197.47;3466195;28;20077;-68
2021/04/30 06:12:13;;;;;;;7.57;4.03;;;;;;;16.32;39.08;99194.13;3456885;28;20129;-69
2021/04/30 06:13:53;;;;;;;6.15;3.30;;;;;;;16.27;39.13;99195.91;3456884;28;20037;-69
2021/04/30 06:15:34;;;;;;;8.60;3.65;;;;;;;16.18;39.24;99203.53;3456786;28;20053;-69
2021/04/30 06:17:15;;;;;;;6.70;2.92;;;;;;;16.13;39.40;99192.72;3456943;28;20045;-69
2021/04/30 06:18:56;;;;;;;8.50;3.70;;;;;;;16.11;39.24;99197.53;3456743;28;20144;-69
2021/04/30 06:20:37;;;;;;;4.72;3.35;;;;;;;16.04;39.36;99192.31;3457951;28;20386;-68
2021/04/30 06:22:17;;;;;;;11.52;4.13;;;;;;;16.02;39.38;99198.97;3466207;28;20033;-68
2021/04/30 06:24:01;;;;;;;14.30;3.70;;;;;;;16.01;39.30;99197.34;3469984;28;20530;-69
2021/04/30 06:25:41;;;;;;;6.53;4.22;;;;;;;16.00;39.63;99193.84;3442216;28;20149;-69
2021/04/30 06:27:22;;;;;;;5.65;3.10;;;;;;;16.04;39.70;99186.94;3443001;28;20050;-69
2021/04/30 06:29:03;;;;;;;5.15;3.35;;;;;;;16.09;39.93;99180.81;3442443;28;20514;-70
2021/04/30 06:30:44;;;;;;;4.15;3.83;;;;;;;16.16;39.73;99200.31;3445718;28;20050;-68
2021/04/30 06:32:24;;;;;;;6.57;3.85;;;;;;;16.09;39.55;99194.25;3470398;28;20438;-69
2021/04/30 06:34:05;;;;;;;7.38;3.30;;;;;;;16.02;39.72;99193.59;3470357;28;20514;-69
2021/04/30 06:35:46;;;;;;;8.70;3.97;;;;;;;15.97;39.90;99194.31;3465451;28;20044;-68
2021/04/30 06:37:27;;;;;;;8.52;3.60;;;;;;;16.06;40.38;99192.88;3456696;28;20136;-69
2021/04/30 06:39:08;;;;;;;7.10;3.65;;;;;;;16.12;39.94;99191.91;3456247;28;20115;-69
2021/04/30 06:40:48;;;;;;;5.85;3.25;;;;;;;16.14;39.91;99202.41;3457337;28;20073;-69
2021/04/30 06:42:29;;;;;;;5.70;3.40;;;;;;;16.15;40.40;99198.66;3455926;28;20057;-69
2021/04/30 06:44:10;;;;;;;8.35;3.67;;;;;;;16.10;39.88;99202.06;3456610;28;20497;-68
2021/04/30 06:45:51;;;;;;;8.27;3.50;;;;;;;16.02;39.96;99202.47;3468418;28;20064;-69
2021/04/30 06:47:33;;;;;;;4.70;3.72;;;;;;;16.00;39.84;99204.59;3468379;28;20045;-70
2021/04/30 06:49:14;;;;;;;8.63;4.63;;;;;;;15.96;40.05;99203.44;3470120;28;20391;-69
2021/04/30 06:50:55;;;;;;;7.85;3.40;;;;;;;15.97;40.21;99199.69;3468229;28;20072;-69
2021/04/30 06:52:38;;;;;;;11.60;4.30;;;;;;;15.96;40.24;99200.75;3469996;28;20120;-69
2021/04/30 06:54:19;;;;;;;8.35;4.00;;;;;;;15.94;40.21;99192.13;3468383;28;20053;-68
2021/04/30 06:56:00;;;;;;;8.18;4.32;;;;;;;15.97;40.46;99197.00;3468173;28;20463;-68
2021/04/30 06:57:41;;;;;;;10.30;4.78;;;;;;;16.00;40.50;99201.91;3463853;28;20408;-68
2021/04/30 06:59:22;;;;;;;7.07;4.45;;;;;;;16.01;40.45;99197.34;3456247;28;20049;-69
2021/04/30 07:01:03;;;;;;;7.10;3.90;;;;;;;16.05;40.74;99204.66;3461967;28;20045;-69
2021/04/30 07:02:44;;;;;;;11.43;5.03;;;;;;;16.10;40.58;99206.63;3467840;28;20038;-68
2021/04/30 07:04:25;;;;;;;8.55;4.15;;;;;;;16.08;40.66;99185.41;3466667;28;20496;-67
2021/04/30 07:06:06;;;;;;;7.63;4.75;;;;;;;16.17;40.75;99185.78;3469001;28;20041;-68
2021/04/30 07:07:46;;;;;;;5.03;4.10;;;;;;;16.23;40.72;99184.81;3458353;28;20041;-68
2021/04/30 07:09:27;;;;;;;5.85;4.05;;;;;;;16.28;40.84;99184.91;3456161;28;20042;-68
2021/04/30 07:11:08;;;;;;;7.15;4.47;;;;;;;16.31;40.72;99172.84;3457058;28;20420;-68
2021/04/30 07:12:49;;;;;;;10.27;4.07;;;;;;;16.46;40.76;99177.66;3459415;28;20038;-69
2021/04/30 07:14:29;;;;;;;7.15;4.65;;;;;;;16.58;40.69;99162.22;3465418;28;20037;-68
2021/04/30 07:16:11;;;;;;;7.55;4.30;;;;;;;16.64;40.42;99173.88;3453588;28;20501;-68
2021/04/30 07:17:52;;;;;;;8.57;4.70;;;;;;;16.57;40.37;99169.50;3455664;28;20037;-69
2021/04/30 07:19:33;;;;;;;7.68;4.40;;;;;;;16.49;40.45;99161.81;3458686;28;20068;-71
2021/04/30 07:21:17;;;;;;;5.22;4.38;;;;;;;16.39;40.53;99155.47;3456018;28;20042;-70
2021/04/30 07:22:58;;;;;;;8.30;4.22;;;;;;;16.40;40.65;99157.13;3454788;28;20045;-68
2021/04/30 07:24:39;;;;;;;6.97;5.10;;;;;;;16.37;40.56;99142.28;3448695;28;20057;-68
2021/04/30 07:26:22;;;;;;;7.57;4.20;;;;;;;16.37;40.49;99147.66;3454607;28;20041;-69
2021/04/30 07:28:03;;;;;;;9.30;3.92;;;;;;;16.43;40.80;99143.97;3454759;28;20638;-70
2021/04/30 07:29:45;;;;;;;8.18;4.43;;;;;;;16.51;40.90;99148.94;3454803;28;20069;-70
2021/04/30 07:31:28;;;;;;;6.47;3.50;;;;;;;16.63;40.85;99137.28;3454268;28;20061;-69
2021/04/30 07:33:09;;;;;;;9.30;4.32;;;;;;;16.66;40.66;99134.91;3457226;28;20037;-68
2021/04/30 07:34:52;;;;;;;12.40;4.88;;;;;;;16.64;40.30;99137.03;3454446;28;20046;-71
2021/04/30 07:36:33;;;;;;;5.78;4.10;;;;;;;16.61;40.28;99136.72;3448658;28;20468;-70
2021/04/30 07:38:14;;;;;;;8.48;4.60;;;;;;;16.59;40.21;99136.94;3455214;28;20163;-71
2021/04/30 07:39:54;;;;;;;7.10;4.60;;;;;;;16.57;40.18;99126.44;3455515;28;20121;-69
2021/04/30 07:41:35;;;;;;;9.35;4.57;;;;;;;16.60;40.11;99132.38;3453829;28;20037;-69
2021/04/30 07:43:16;;;;;;;11.30;4.47;;;;;;;16.58;40.11;99121.88;3455133;28;20046;-68
2021/04/30 07:44:57;;;;;;;10.45;4.63;;;;;;;16.65;40.33;99116.31;3462021;28;20033;-69
2021/04/30 07:46:38;;;;;;;9.48;4.28;;;;;;;16.69;40.40;99112.88;3469470;28;20132;-70
2021/04/30 07:48:18;;;;;;;8.38;4.53;;;;;;;16.75;40.22;99111.06;3468547;28;20045;-69
2021/04/30 07:50:00;;;;;;;8.30;4.40;;;;;;;16.78;40.16;99105.22;3455600;28;20045;-70
2021/04/30 07:51:41;;;;;;;6.88;4.25;;;;;;;16.80;40.04;99108.47;3456148;28;20080;-67
2021/04/30 07:53:22;;;;;;;5.68;4.05;;;;;;;16.77;40.37;99103.56;3456146;28;20103;-72
2021/04/30 07:55:03;;;;;;;3.95;3.55;;;;;;;16.75;40.36;99108.38;3455502;28;20128;-70